Главная страница
METAR-TAF:

METAR-TAF

Аэропорты :

Борисполь, Украина

широта: 50-20N, долгота: 030-58E, высота над уровнем моря: 121 м

Текущие метеонаблюдения

Эта сводка был подготовлена 34 минут назад, в 13:00 UTC
Ветер 6 Узел от юго-юго-восточный, изменяющийся между юго-восточный и южный-юго-западный
Температура 31°C
Влажность 33%
Давление 1013 hPa
Видимость 10 км и более
Нет облачности ниже 1500 м, и нет кучево-дождевой облачности

METAR: UKBB 141300Z 16003MPS 140V200 CAVOK 31/13 Q1013 R88/D NOSIG

Время: 16:34 (13:34 UTC)

Прогноз

Эта сводка был подготовлена 2 часа и 33 минут назад, в 11:01 UTC
Прогноз действительный с 14-го 12 UTC до 15-го 12 UTC
Ветер 8 Узел от южный-юго-западный
Видимость 10 км и более
Нет облачности ниже 1500 м, и нет кучево-дождевой облачности

TAF: UKBB 141101Z 1412/1512 20004MPS CAVOK TX33/1511Z TN17/1502Z

Метеонаблюдения и прогнозы для более 4000 аэропортов (сводки METAR и TAF).

Имеющиеся станции представлены на карте желтыми и красными точками.

Чтобы увидеть название станции, наведите на нее мышь.

Затем щелкните, чтобы увидеть метеонаблюдения и метеопрогнозы.

Управление картой: чтобы увеличить масштаб, щелкните зеленые кнопки с черным крестиком; чтобы уменьшить масштаб, щелкните зеленую кнопку с тире; для просмотра соседних карт щелкайте зеленые стрелки.


METAR-TAF: